Bath, South Carolina
Current Conditions -  °F | °C
As of 5:53 PM on Thursday 18 Dec 2014 (Local Time) from KDNL Reporting Station
Few Clouds Few Clouds  
Wind Chill: 57°   Ceiling: Unl
Heat Index: 57°   Visibility: 10mi
Dew Point: 41°   Wind: 5mph
Humidity: 55%   Direction: 330°NNW
Pressure: 30.08"   Gusts: NA
Location:  33.5°N, 81.87°W
Report Text: KDNL 182253Z AUTO 33004KT 10SM FEW110 14/05 A3008 RMK AO2 SLP187 T01390050
Loading
Personal Weather Stations






























Interactive Weather Map New forecast layout! Learn more

10-Day Weather Forecast

Advertisements
Track Severe Weather on mobile